createdAt,value
2019-02-18T00:01:35.125Z,10.73
2019-02-18T00:04:06.796Z,10.63
2019-02-18T00:06:38.639Z,10.93
2019-02-18T00:09:10.272Z,10.60
2019-02-18T00:11:41.706Z,10.17
2019-02-18T00:14:13.468Z,11.53
2019-02-18T00:16:44.966Z,11.13
2019-02-18T00:19:16.417Z,11.53
2019-02-18T00:21:48.152Z,10.43
2019-02-18T00:24:19.959Z,10.43
2019-02-18T00:26:51.502Z,10.60
2019-02-18T00:29:23.054Z,10.57
2019-02-18T00:31:54.534Z,10.40
2019-02-18T00:34:26.090Z,10.80
2019-02-18T00:36:57.513Z,10.37
2019-02-18T00:39:29.021Z,10.10
2019-02-18T00:42:00.526Z,10.33
2019-02-18T00:44:32.013Z,11.30
2019-02-18T00:47:04.358Z,10.80
2019-02-18T00:49:36.758Z,10.70
2019-02-18T00:52:08.247Z,10.80
2019-02-18T00:54:39.689Z,10.23
2019-02-18T00:57:11.255Z,10.37
2019-02-18T00:59:42.475Z,10.60
2019-02-18T01:02:13.861Z,10.50
2019-02-18T01:04:45.566Z,11.37
2019-02-18T01:07:16.987Z,10.27
2019-02-18T01:09:48.669Z,9.93
2019-02-18T01:12:20.129Z,10.57
2019-02-18T01:14:51.499Z,10.47
2019-02-18T01:17:22.818Z,11.17
2019-02-18T01:19:54.117Z,10.50
2019-02-18T01:22:26.463Z,10.63
2019-02-18T01:24:57.894Z,11.33
2019-02-18T01:27:29.328Z,11.27
2019-02-18T01:30:00.669Z,10.97
2019-02-18T01:32:33.540Z,11.50
2019-02-18T01:35:05.303Z,11.03
2019-02-18T01:37:45.259Z,11.80
2019-02-18T01:40:13.279Z,10.87
2019-02-18T01:42:44.871Z,12.13
2019-02-18T01:45:16.298Z,11.03
2019-02-18T01:47:48.884Z,10.43
2019-02-18T01:50:20.648Z,11.23
2019-02-18T01:52:52.095Z,11.30
2019-02-18T01:55:23.637Z,12.13
2019-02-18T01:57:54.884Z,10.67
2019-02-18T02:00:26.605Z,10.13
2019-02-18T02:02:57.799Z,10.93
2019-02-18T02:05:29.965Z,10.90
2019-02-18T02:08:01.199Z,10.33
2019-02-18T02:10:32.661Z,10.07
2019-02-18T02:13:47.460Z,10.60
2019-02-18T02:16:18.776Z,11.73
2019-02-18T02:18:50.111Z,11.27
2019-02-18T02:21:21.466Z,10.87
2019-02-18T02:23:53.422Z,10.73
2019-02-18T02:26:24.765Z,10.73
2019-02-18T02:28:56.067Z,10.53
2019-02-18T02:31:27.490Z,11.10
2019-02-18T02:33:58.773Z,10.40
2019-02-18T02:36:30.534Z,10.30
2019-02-18T02:39:01.823Z,10.40
2019-02-18T02:41:34.809Z,10.17
2019-02-18T02:44:06.535Z,9.97
2019-02-18T02:46:38.145Z,9.73
2019-02-18T02:49:09.443Z,10.43
2019-02-18T02:51:40.897Z,10.27
2019-02-18T02:54:12.234Z,10.60
2019-02-18T02:56:44.112Z,10.77
2019-02-18T02:59:15.626Z,12.13
2019-02-18T03:01:47.062Z,10.70
2019-02-18T03:04:18.717Z,11.57
2019-02-18T03:06:50.505Z,12.10
2019-02-18T03:09:21.905Z,11.17
2019-02-18T03:11:53.229Z,11.63
2019-02-18T03:14:24.502Z,10.63
2019-02-18T03:16:55.718Z,10.67
2019-02-18T03:19:27.028Z,10.73
2019-02-18T03:21:58.664Z,11.33
2019-02-18T03:24:30.008Z,11.10
2019-02-18T03:27:01.188Z,10.80
2019-02-18T03:30:39.330Z,11.03
2019-02-18T03:33:11.579Z,10.77
2019-02-18T03:35:42.759Z,11.17
2019-02-18T03:38:14.790Z,11.77
2019-02-18T03:40:46.406Z,11.63
2019-02-18T03:43:17.851Z,12.07
2019-02-18T03:45:49.542Z,12.77
2019-02-18T03:48:20.746Z,12.87
2019-02-18T03:50:53.273Z,13.03
2019-02-18T03:53:24.819Z,13.20
2019-02-18T03:55:56.267Z,12.80
2019-02-18T03:58:27.921Z,13.47
2019-02-18T04:00:59.345Z,14.97
2019-02-18T04:03:30.945Z,12.97
2019-02-18T04:06:02.324Z,13.63
2019-02-18T04:08:42.588Z,14.50
2019-02-18T04:11:06.708Z,13.77
2019-02-18T04:13:37.874Z,13.73
2019-02-18T04:16:09.546Z,14.70
2019-02-18T04:18:40.846Z,13.33
2019-02-18T04:21:12.162Z,15.00
2019-02-18T04:23:43.472Z,14.83
2019-02-18T04:26:14.803Z,14.53
2019-02-18T04:28:46.984Z,16.33
2019-02-18T04:31:18.550Z,15.47
2019-02-18T04:33:49.728Z,15.03
2019-02-18T04:36:21.249Z,18.40
2019-02-18T04:38:54.370Z,16.10
2019-02-18T04:41:25.403Z,15.73
2019-02-18T04:43:56.803Z,15.43
2019-02-18T04:46:28.310Z,16.20
2019-02-18T04:48:59.629Z,15.23
2019-02-18T04:51:31.005Z,15.13
2019-02-18T04:54:02.423Z,16.03
2019-02-18T04:56:34.091Z,15.37
2019-02-18T04:59:05.463Z,15.33
2019-02-18T05:01:37.124Z,16.63
2019-02-18T05:04:08.396Z,15.17
2019-02-18T05:06:39.702Z,15.50
2019-02-18T05:09:11.413Z,17.47
2019-02-18T05:11:42.916Z,16.30
2019-02-18T05:14:14.265Z,17.60
2019-02-18T05:16:45.773Z,16.03
2019-02-18T05:19:17.256Z,15.20
2019-02-18T05:21:48.682Z,15.27
2019-02-18T05:24:19.970Z,15.10
2019-02-18T05:26:51.539Z,16.10
2019-02-18T05:29:22.924Z,15.37
2019-02-18T05:31:54.263Z,16.13
2019-02-18T05:34:26.182Z,16.13
2019-02-18T05:36:57.824Z,18.13
2019-02-18T05:39:29.112Z,16.90
2019-02-18T05:42:00.403Z,15.70
2019-02-18T05:44:31.847Z,16.73
2019-02-18T05:47:03.208Z,15.40
2019-02-18T05:49:34.607Z,16.43
2019-02-18T05:52:06.378Z,15.50
2019-02-18T05:54:38.027Z,16.13
2019-02-18T05:57:09.737Z,14.80
2019-02-18T05:59:40.971Z,15.13
2019-02-18T06:02:12.182Z,15.10
2019-02-18T06:04:43.486Z,16.17
2019-02-18T06:07:14.740Z,17.53
2019-02-18T06:09:45.969Z,16.83
2019-02-18T06:12:17.318Z,16.60
2019-02-18T06:14:48.600Z,15.27
2019-02-18T06:17:19.768Z,15.07
2019-02-18T06:19:50.967Z,14.93
2019-02-18T06:22:22.403Z,16.60
2019-02-18T06:24:54.051Z,16.53
2019-02-18T06:27:25.887Z,16.60
2019-02-18T06:29:57.081Z,16.73
2019-02-18T06:32:28.412Z,18.03
2019-02-18T06:34:59.969Z,17.27
2019-02-18T06:37:31.572Z,17.50
2019-02-18T06:40:02.996Z,17.60
2019-02-18T06:42:34.218Z,17.97
2019-02-18T06:45:33.899Z,17.77
2019-02-18T06:48:13.651Z,17.90
2019-02-18T06:50:45.234Z,18.10
2019-02-18T06:53:16.910Z,19.83
2019-02-18T06:55:48.240Z,20.37
2019-02-18T06:58:28.787Z,20.63
2019-02-18T07:01:04.702Z,19.53
2019-02-18T07:04:07.442Z,20.20
2019-02-18T07:07:00.510Z,21.20
2019-02-18T07:09:57.515Z,19.90
2019-02-18T07:12:34.562Z,21.80
2019-02-18T07:15:07.907Z,22.30
2019-02-18T07:17:39.895Z,21.63
2019-02-18T07:20:11.346Z,19.03
2019-02-18T07:22:43.254Z,19.63
2019-02-18T07:25:14.631Z,19.83
2019-02-18T07:27:46.254Z,17.80
2019-02-18T07:30:18.549Z,18.13
2019-02-18T07:32:49.896Z,18.27
2019-02-18T07:35:21.351Z,18.93
2019-02-18T07:37:53.556Z,18.90
2019-02-18T07:40:24.986Z,18.17
2019-02-18T07:42:56.428Z,18.80
2019-02-18T07:45:28.530Z,17.80
2019-02-18T07:48:00.055Z,18.83
2019-02-18T07:50:31.855Z,18.03
2019-02-18T07:53:03.325Z,18.33
2019-02-18T07:55:34.719Z,17.07
2019-02-18T07:58:06.583Z,18.10
2019-02-18T08:00:37.930Z,17.73
2019-02-18T08:03:09.359Z,17.73
2019-02-18T08:05:41.016Z,16.83
2019-02-18T08:08:12.607Z,17.70
2019-02-18T08:10:44.807Z,18.07
2019-02-18T08:13:16.282Z,19.00
2019-02-18T08:15:47.564Z,18.03
2019-02-18T08:18:19.061Z,17.90
2019-02-18T08:20:51.011Z,18.80
2019-02-18T08:23:22.468Z,19.23
2019-02-18T08:25:54.298Z,17.50
2019-02-18T08:28:25.874Z,18.90
2019-02-18T08:30:57.211Z,18.73
2019-02-18T08:33:28.595Z,19.63
2019-02-18T08:36:00.031Z,20.00
2019-02-18T08:38:31.759Z,19.73
2019-02-18T08:41:03.535Z,19.33
2019-02-18T08:43:35.150Z,20.20
2019-02-18T08:46:06.775Z,19.63
2019-02-18T08:48:38.532Z,19.33
2019-02-18T08:51:09.962Z,20.17
2019-02-18T08:53:41.403Z,21.23
2019-02-18T08:56:12.975Z,20.00
2019-02-18T08:58:44.675Z,21.20
2019-02-18T09:01:16.792Z,22.30
2019-02-18T09:03:48.087Z,21.87
2019-02-18T09:06:19.572Z,21.07
2019-02-18T09:08:51.273Z,20.90
2019-02-18T09:11:22.792Z,19.33
2019-02-18T09:13:54.227Z,19.47
2019-02-18T09:16:25.502Z,19.50
2019-02-18T09:18:57.088Z,18.37
2019-02-18T09:21:30.361Z,18.07
2019-02-18T09:24:06.932Z,18.37
2019-02-18T09:26:38.447Z,17.47
2019-02-18T09:29:09.938Z,17.50
2019-02-18T09:31:42.901Z,17.03
2019-02-18T09:34:14.551Z,16.50
2019-02-18T09:36:46.494Z,16.57
2019-02-18T09:39:30.681Z,16.37
2019-02-18T09:41:54.723Z,16.97
2019-02-18T09:44:25.979Z,16.07
2019-02-18T09:46:57.482Z,17.03
2019-02-18T09:49:29.033Z,15.97
2019-02-18T09:52:00.528Z,15.63
2019-02-18T09:54:32.015Z,15.77
2019-02-18T09:57:03.480Z,14.60
2019-02-18T09:59:35.153Z,16.03
2019-02-18T10:02:07.088Z,15.10
2019-02-18T10:04:39.626Z,15.47
2019-02-18T10:07:11.430Z,15.10
2019-02-18T10:09:42.914Z,14.60
2019-02-18T10:12:18.475Z,13.47
2019-02-18T10:14:47.539Z,14.00
2019-02-18T10:17:18.927Z,15.17
2019-02-18T10:19:50.242Z,16.30
2019-02-18T10:22:21.575Z,16.07
2019-02-18T10:24:52.976Z,15.73
2019-02-18T10:27:26.013Z,16.40
2019-02-18T10:29:57.573Z,16.10
2019-02-18T10:32:28.969Z,14.73
2019-02-18T10:35:00.368Z,14.60
2019-02-18T10:37:31.591Z,15.03
2019-02-18T10:40:02.912Z,13.67
2019-02-18T10:42:34.357Z,14.07
2019-02-18T10:45:07.428Z,13.50
2019-02-18T10:47:38.994Z,14.60
2019-02-18T10:50:11.492Z,13.93
2019-02-18T10:52:43.015Z,13.90
2019-02-18T10:55:14.700Z,15.10
2019-02-18T10:57:46.017Z,14.50
2019-02-18T11:00:17.537Z,14.87
2019-02-18T11:02:49.034Z,15.13
2019-02-18T11:05:20.308Z,14.80
2019-02-18T11:07:51.712Z,14.40
2019-02-18T11:10:23.128Z,15.10
2019-02-18T11:12:54.597Z,15.00
2019-02-18T11:15:26.047Z,15.17
2019-02-18T11:17:57.383Z,14.93
2019-02-18T11:20:28.823Z,14.67
2019-02-18T11:23:00.477Z,14.33
2019-02-18T11:25:31.959Z,14.20
2019-02-18T11:28:04.519Z,14.23
2019-02-18T11:30:36.003Z,13.70
2019-02-18T11:33:07.516Z,14.07
2019-02-18T11:35:39.087Z,13.00
2019-02-18T11:38:11.543Z,13.50
2019-02-18T11:40:43.170Z,12.93
2019-02-18T11:43:14.537Z,12.73
2019-02-18T11:45:45.958Z,13.33
2019-02-18T11:48:17.615Z,12.97
2019-02-18T11:50:49.163Z,12.90
2019-02-18T11:53:20.467Z,11.97
2019-02-18T11:55:51.964Z,13.13
2019-02-18T11:58:23.413Z,13.13
2019-02-18T12:00:55.480Z,11.97
2019-02-18T12:03:27.392Z,12.33
2019-02-18T12:05:58.844Z,12.33
2019-02-18T12:08:30.328Z,12.00
2019-02-18T12:11:01.700Z,12.83
2019-02-18T12:13:33.147Z,11.93
2019-02-18T12:16:04.929Z,12.33
2019-02-18T12:18:36.446Z,11.93
2019-02-18T12:21:07.974Z,12.67
2019-02-18T12:23:40.257Z,12.33
2019-02-18T12:26:11.610Z,13.23
2019-02-18T12:28:45.237Z,12.20
2019-02-18T12:31:17.034Z,12.60
2019-02-18T12:33:48.997Z,12.10
2019-02-18T12:36:20.523Z,12.47
2019-02-18T12:38:52.305Z,12.80
2019-02-18T12:41:23.766Z,11.90
2019-02-18T12:43:55.021Z,12.27
2019-02-18T12:46:26.430Z,12.07
2019-02-18T12:48:58.143Z,12.15
2019-02-18T12:51:29.633Z,11.80
2019-02-18T12:54:45.322Z,11.80
2019-02-18T12:56:34.725Z,12.10
2019-02-18T12:59:05.998Z,11.38
2019-02-18T13:01:37.719Z,11.22
2019-02-18T13:04:09.461Z,10.95
2019-02-18T13:06:40.743Z,11.37
2019-02-18T13:09:12.243Z,11.50
2019-02-18T13:11:43.513Z,11.28
2019-02-18T13:14:15.386Z,11.53
2019-02-18T13:16:46.707Z,11.80
2019-02-18T13:19:18.028Z,11.13
2019-02-18T13:21:49.329Z,11.45
2019-02-18T13:24:21.029Z,10.65
2019-02-18T13:26:52.755Z,10.58
2019-02-18T13:29:23.931Z,10.45
2019-02-18T13:31:55.846Z,10.63
2019-02-18T13:34:27.081Z,9.90
2019-02-18T13:36:59.162Z,10.43
2019-02-18T13:39:30.483Z,9.98
2019-02-18T13:42:07.368Z,10.00
2019-02-18T13:44:35.136Z,10.10
2019-02-18T13:47:08.368Z,9.70
2019-02-18T13:49:39.901Z,10.33
2019-02-18T13:52:11.358Z,9.73
2019-02-18T13:54:42.558Z,9.85
2019-02-18T13:57:13.970Z,9.93
2019-02-18T13:59:45.563Z,9.30
2019-02-18T14:02:17.224Z,10.73
2019-02-18T14:04:48.548Z,10.63
2019-02-18T14:07:20.673Z,9.70
2019-02-18T14:09:52.108Z,9.60
2019-02-18T14:12:24.057Z,9.37
2019-02-18T14:14:55.496Z,10.07
2019-02-18T14:17:26.750Z,8.77
2019-02-18T14:19:58.057Z,8.98
2019-02-18T14:22:29.553Z,9.00
2019-02-18T14:25:00.723Z,9.15
2019-02-18T14:27:32.603Z,8.70
2019-02-18T14:30:04.153Z,8.37
2019-02-18T14:32:35.488Z,9.17
2019-02-18T14:35:07.454Z,8.53
2019-02-18T14:37:38.738Z,9.50
2019-02-18T14:40:12.985Z,9.07
2019-02-18T14:42:44.467Z,9.10
2019-02-18T14:45:16.515Z,8.90
2019-02-18T14:47:48.079Z,9.38
2019-02-18T14:50:19.893Z,8.30
2019-02-18T14:52:53.328Z,8.97
2019-02-18T14:55:24.709Z,5.80
2019-02-18T14:57:56.153Z,5.93
2019-02-18T15:00:27.440Z,5.53
2019-02-18T15:02:59.638Z,5.37
2019-02-18T15:05:31.192Z,5.00
2019-02-18T15:08:02.624Z,4.87
2019-02-18T15:10:33.919Z,4.47
2019-02-18T15:13:05.453Z,4.03
2019-02-18T15:15:36.852Z,5.00
2019-02-18T15:18:08.714Z,4.70
2019-02-18T15:20:39.944Z,4.20
2019-02-18T15:23:11.234Z,4.50
2019-02-18T15:25:42.628Z,4.80
2019-02-18T15:28:13.851Z,4.53
2019-02-18T15:30:45.394Z,4.67
2019-02-18T15:33:16.765Z,4.10
2019-02-18T15:35:48.144Z,4.80
2019-02-18T15:38:19.727Z,4.40
2019-02-18T15:40:51.625Z,4.83
2019-02-18T15:43:23.145Z,5.07
2019-02-18T15:45:54.676Z,5.47
2019-02-18T15:48:25.972Z,5.37
2019-02-18T15:50:57.445Z,5.67
2019-02-18T15:53:28.617Z,5.77
2019-02-18T15:56:00.131Z,9.53
2019-02-18T15:58:31.632Z,8.33
2019-02-18T16:01:02.955Z,10.67
2019-02-18T16:03:34.175Z,7.80
2019-02-18T16:06:05.423Z,5.93
2019-02-18T16:08:37.242Z,5.70
2019-02-18T16:11:08.998Z,4.80
2019-02-18T16:13:40.215Z,4.80
2019-02-18T16:16:12.427Z,4.90
2019-02-18T16:18:43.713Z,4.50
2019-02-18T16:21:15.543Z,4.60
2019-02-18T16:23:46.840Z,4.80
2019-02-18T16:26:18.265Z,5.23
2019-02-18T16:28:49.603Z,3.93
2019-02-18T16:31:21.335Z,3.93
2019-02-18T16:33:52.486Z,3.90
2019-02-18T16:36:24.077Z,3.40
2019-02-18T16:38:55.523Z,3.43
2019-02-18T16:41:26.781Z,3.13
2019-02-18T16:43:59.077Z,3.47
2019-02-18T16:46:30.987Z,3.87
2019-02-18T16:49:02.492Z,4.40
2019-02-18T16:51:34.120Z,4.43
2019-02-18T16:54:05.478Z,4.70
2019-02-18T16:56:36.702Z,4.07
2019-02-18T16:59:08.017Z,4.13
2019-02-18T17:01:39.392Z,3.83
2019-02-18T17:04:10.556Z,4.43
2019-02-18T17:06:42.113Z,4.60
2019-02-18T17:09:14.955Z,5.30
2019-02-18T17:11:46.361Z,4.57
2019-02-18T17:14:17.892Z,4.70
2019-02-18T17:16:49.175Z,4.57
2019-02-18T17:19:20.545Z,5.17
2019-02-18T17:21:51.907Z,5.03
2019-02-18T17:24:23.725Z,5.13
2019-02-18T17:26:55.156Z,4.47
2019-02-18T17:29:26.391Z,4.53
2019-02-18T17:31:57.949Z,4.80
2019-02-18T17:34:29.190Z,4.53
2019-02-18T17:37:00.778Z,4.80
2019-02-18T17:39:32.031Z,5.27
2019-02-18T17:42:03.428Z,4.93
2019-02-18T17:44:34.650Z,5.13
2019-02-18T17:47:06.009Z,4.90
2019-02-18T17:49:37.914Z,5.27
2019-02-18T17:52:09.227Z,5.10
2019-02-18T17:54:40.482Z,5.07
2019-02-18T17:57:11.799Z,5.20
2019-02-18T17:59:43.026Z,5.10
2019-02-18T18:02:14.723Z,4.97
2019-02-18T18:04:45.965Z,5.30
2019-02-18T18:07:17.403Z,5.90
2019-02-18T18:09:48.630Z,4.80
2019-02-18T18:12:20.938Z,5.87
2019-02-18T18:14:52.386Z,6.13
2019-02-18T18:17:23.692Z,6.03
2019-02-18T18:19:54.951Z,6.17
2019-02-18T18:22:26.273Z,6.20
2019-02-18T18:24:57.817Z,6.13
2019-02-18T18:27:29.150Z,6.50
2019-02-18T18:30:00.563Z,7.17
2019-02-18T18:32:31.778Z,6.97
2019-02-18T18:35:03.243Z,7.83
2019-02-18T18:37:35.501Z,7.57
2019-02-18T18:40:07.709Z,7.13
2019-02-18T18:42:38.994Z,11.13
2019-02-18T18:45:12.303Z,10.57
2019-02-18T18:47:43.818Z,5.53
2019-02-18T18:50:17.338Z,5.40
2019-02-18T18:52:49.367Z,5.20
2019-02-18T18:55:20.875Z,5.53
2019-02-18T18:58:04.366Z,7.70
2019-02-18T19:00:35.695Z,7.63
2019-02-18T19:03:07.410Z,9.60
2019-02-18T19:05:38.982Z,9.60
2019-02-18T19:08:10.254Z,9.30
2019-02-18T19:10:42.459Z,8.87
2019-02-18T19:13:14.334Z,8.87
2019-02-18T19:15:49.614Z,8.27
2019-02-18T19:18:19.108Z,8.57
2019-02-18T19:20:50.477Z,7.53
2019-02-18T19:23:21.899Z,9.20
2019-02-18T19:25:53.440Z,8.73
2019-02-18T19:28:25.218Z,7.97
2019-02-18T19:30:56.564Z,8.47
2019-02-18T19:33:28.095Z,9.60
2019-02-18T19:35:59.392Z,8.63
2019-02-18T19:38:30.728Z,9.80
2019-02-18T19:41:02.428Z,10.03
2019-02-18T19:43:34.145Z,8.57
2019-02-18T19:46:05.688Z,9.87
2019-02-18T19:48:37.574Z,9.03
2019-02-18T19:51:09.459Z,9.30
2019-02-18T19:53:40.761Z,8.70
2019-02-18T19:56:12.245Z,9.13
2019-02-18T19:58:43.534Z,8.97
2019-02-18T20:01:14.986Z,9.73
2019-02-18T20:03:48.214Z,9.33
2019-02-18T20:06:19.659Z,9.73
2019-02-18T20:08:51.741Z,9.80
2019-02-18T20:11:23.205Z,9.10
2019-02-18T20:13:58.848Z,9.30
2019-02-18T20:16:27.578Z,8.47
2019-02-18T20:18:59.007Z,8.30
2019-02-18T20:21:30.375Z,9.47
2019-02-18T20:24:01.717Z,9.57
2019-02-18T20:26:33.099Z,9.73
2019-02-18T20:29:04.977Z,9.90
2019-02-18T20:31:36.371Z,10.90
2019-02-18T20:34:07.703Z,10.67
2019-02-18T20:36:38.948Z,10.17
2019-02-18T20:39:10.775Z,9.60
2019-02-18T20:41:42.343Z,9.70
2019-02-18T20:44:13.590Z,10.30
2019-02-18T20:46:44.895Z,9.00
2019-02-18T20:49:16.311Z,8.70
2019-02-18T20:51:47.766Z,9.40
2019-02-18T20:54:19.250Z,9.10
2019-02-18T20:56:50.610Z,9.57
2019-02-18T20:59:22.061Z,9.83
2019-02-18T21:01:53.406Z,9.73
2019-02-18T21:04:25.026Z,10.23
2019-02-18T21:06:56.707Z,10.30
2019-02-18T21:09:27.941Z,10.40
2019-02-18T21:11:59.550Z,10.17
2019-02-18T21:14:31.068Z,10.70
2019-02-18T21:17:02.405Z,10.83
2019-02-18T21:19:33.728Z,10.53
2019-02-18T21:22:05.398Z,10.60
2019-02-18T21:24:36.923Z,10.40
2019-02-18T21:27:08.814Z,10.50
2019-02-18T21:29:40.627Z,12.00
2019-02-18T21:32:12.078Z,11.43
2019-02-18T21:34:43.497Z,11.63
2019-02-18T21:37:15.076Z,12.07
2019-02-18T21:39:46.914Z,10.67
2019-02-18T21:42:19.356Z,12.23
2019-02-18T21:44:50.775Z,11.87
2019-02-18T21:47:22.369Z,12.20
2019-02-18T21:49:54.389Z,11.67
2019-02-18T21:52:25.887Z,12.17
2019-02-18T21:54:57.622Z,18.53
2019-02-18T21:57:28.951Z,14.33
2019-02-18T22:00:00.535Z,15.47
2019-02-18T22:02:33.677Z,15.70
2019-02-18T22:05:05.278Z,15.33
2019-02-18T22:07:38.391Z,14.60
2019-02-18T22:10:09.904Z,14.37
2019-02-18T22:12:41.330Z,14.33
2019-02-18T22:15:12.953Z,14.47
2019-02-18T22:17:44.851Z,13.57
2019-02-18T22:20:17.043Z,14.97
2019-02-18T22:22:48.524Z,13.87
2019-02-18T22:25:20.031Z,13.23
2019-02-18T22:27:51.472Z,13.70
2019-02-18T22:30:23.040Z,14.90
2019-02-18T22:32:54.545Z,12.90
2019-02-18T22:35:25.913Z,12.83
2019-02-18T22:37:57.545Z,12.03
2019-02-18T22:40:29.367Z,12.27
2019-02-18T22:43:01.113Z,12.90
2019-02-18T22:45:32.897Z,13.00
2019-02-18T22:48:04.422Z,12.87
2019-02-18T22:50:35.871Z,12.70
2019-02-18T22:53:07.204Z,13.77
2019-02-18T22:55:38.789Z,13.50
2019-02-18T22:58:10.117Z,13.33
2019-02-18T23:01:00.975Z,13.57
2019-02-18T23:03:33.959Z,13.23
2019-02-18T23:06:05.563Z,13.30
2019-02-18T23:08:37.117Z,14.90
2019-02-18T23:11:09.392Z,14.23
2019-02-18T23:13:40.797Z,13.87
2019-02-18T23:16:12.309Z,13.67
2019-02-18T23:18:43.738Z,13.63
2019-02-18T23:21:15.168Z,13.27
2019-02-18T23:23:47.131Z,13.10
2019-02-18T23:26:19.040Z,13.33
2019-02-18T23:28:55.859Z,13.70
2019-02-18T23:31:27.230Z,13.40
2019-02-18T23:34:02.111Z,13.60
2019-02-18T23:36:33.381Z,13.47
2019-02-18T23:39:05.692Z,12.57
2019-02-18T23:41:37.962Z,12.23
2019-02-18T23:44:09.376Z,11.17
2019-02-18T23:46:40.968Z,11.87
2019-02-18T23:49:12.474Z,11.90
2019-02-18T23:51:43.859Z,12.10
2019-02-18T23:54:15.217Z,11.97
2019-02-18T23:56:46.995Z,12.30
2019-02-18T23:59:18.198Z,12.33
